createdAt,value
2018-07-03T00:00:08.001Z,70.70
2018-07-03T00:02:37.172Z,70.80
2018-07-03T00:05:06.587Z,71.10
2018-07-03T00:07:36.107Z,71.60
2018-07-03T00:10:05.510Z,72.60
2018-07-03T00:12:34.575Z,73.20
2018-07-03T00:15:03.693Z,74.10
2018-07-03T00:17:32.828Z,74.20
2018-07-03T00:20:01.971Z,74.60
2018-07-03T00:22:31.731Z,75.40
2018-07-03T00:25:00.783Z,75.50
2018-07-03T00:27:29.934Z,76.50
2018-07-03T00:29:58.957Z,76.30
2018-07-03T00:32:28.038Z,77.40
2018-07-03T00:34:57.100Z,77.10
2018-07-03T00:37:26.175Z,77.60
2018-07-03T00:39:55.291Z,78.40
2018-07-03T00:42:24.379Z,79.00
2018-07-03T00:44:53.442Z,79.30
2018-07-03T00:47:22.519Z,79.40
2018-07-03T00:49:51.624Z,79.10
2018-07-03T00:52:20.603Z,79.10
2018-07-03T00:54:49.767Z,79.80
2018-07-03T00:57:18.810Z,79.50
2018-07-03T00:59:59.220Z,80.10
2018-07-03T01:02:28.201Z,80.60
2018-07-03T01:04:57.267Z,81.40
2018-07-03T01:07:26.339Z,81.90
2018-07-03T01:09:55.329Z,82.80
2018-07-03T01:12:24.398Z,83.70
2018-07-03T01:14:53.463Z,84.10
2018-07-03T01:17:22.512Z,84.60
2018-07-03T01:19:51.584Z,85.50
2018-07-03T01:22:20.639Z,86.80
2018-07-03T01:24:49.729Z,87.90
2018-07-03T01:27:18.834Z,89.00
2018-07-03T01:29:47.822Z,89.50
2018-07-03T01:32:16.899Z,90.80
2018-07-03T01:34:45.863Z,91.10
2018-07-03T01:37:14.850Z,91.90
2018-07-03T01:39:43.944Z,92.60
2018-07-03T01:42:13.074Z,92.90
2018-07-03T01:44:42.167Z,93.60
2018-07-03T01:47:11.195Z,94.30
2018-07-03T01:49:40.341Z,93.40
2018-07-03T01:52:09.536Z,94.00
2018-07-03T01:54:38.587Z,93.40
2018-07-03T01:57:07.667Z,93.30
2018-07-03T01:59:36.700Z,93.70
2018-07-03T02:02:05.718Z,93.70
2018-07-03T02:04:34.773Z,94.50
2018-07-03T02:07:03.779Z,94.80
2018-07-03T02:09:32.914Z,95.10
2018-07-03T02:12:01.969Z,95.40
2018-07-03T02:14:31.150Z,95.90
2018-07-03T02:17:00.869Z,95.90
2018-07-03T02:19:29.862Z,96.00
2018-07-03T02:21:58.886Z,96.20
2018-07-03T02:24:27.911Z,96.60
2018-07-03T02:26:57.000Z,97.10
2018-07-03T02:29:25.989Z,97.40
2018-07-03T02:31:55.099Z,96.90
2018-07-03T02:34:24.291Z,96.90
2018-07-03T02:36:53.770Z,97.00
2018-07-03T02:39:22.887Z,97.40
2018-07-03T02:41:51.951Z,97.50
2018-07-03T02:44:21.040Z,97.40
2018-07-03T02:46:50.210Z,97.90
2018-07-03T02:49:19.175Z,98.30
2018-07-03T02:51:48.146Z,98.20
2018-07-03T02:54:17.302Z,98.20
2018-07-03T02:56:46.295Z,98.30
2018-07-03T02:59:15.326Z,98.90
2018-07-03T03:01:44.347Z,98.80
2018-07-03T03:04:13.402Z,99.10
2018-07-03T03:06:42.572Z,98.70
2018-07-03T03:09:12.572Z,98.60
2018-07-03T03:11:41.775Z,98.80
2018-07-03T03:14:10.755Z,98.80
2018-07-03T03:16:39.760Z,99.30
2018-07-03T03:19:08.748Z,99.20
2018-07-03T03:21:39.658Z,99.30
2018-07-03T03:24:08.773Z,99.20
2018-07-03T03:26:37.863Z,99.50
2018-07-03T03:29:06.993Z,99.60
2018-07-03T03:31:36.098Z,99.90
2018-07-03T03:34:05.210Z,99.90
2018-07-03T03:36:34.470Z,99.90
2018-07-03T03:39:03.950Z,99.90
2018-07-03T03:41:33.048Z,99.90
2018-07-03T03:44:02.209Z,99.90
2018-07-03T03:46:31.313Z,99.90
2018-07-03T03:49:00.563Z,99.90
2018-07-03T03:51:29.750Z,99.90
2018-07-03T03:53:58.879Z,99.90
2018-07-03T03:56:27.961Z,99.90
2018-07-03T03:58:57.004Z,99.90
2018-07-03T04:01:26.099Z,99.90
2018-07-03T04:03:55.431Z,99.90
2018-07-03T04:06:24.543Z,99.90
2018-07-03T04:08:53.510Z,99.90
2018-07-03T04:11:22.523Z,99.90
2018-07-03T04:13:51.583Z,99.90
2018-07-03T04:16:20.713Z,99.90
2018-07-03T04:18:52.851Z,99.90
2018-07-03T04:21:22.121Z,99.90
2018-07-03T04:23:51.185Z,99.90
2018-07-03T04:26:20.643Z,99.90
2018-07-03T04:28:49.916Z,99.90
2018-07-03T04:31:18.976Z,99.90
2018-07-03T04:33:48.011Z,99.90
2018-07-03T04:36:19.241Z,99.90
2018-07-03T04:38:48.326Z,99.90
2018-07-03T04:41:17.501Z,99.90
2018-07-03T04:43:46.558Z,99.90
2018-07-03T04:46:15.614Z,99.90
2018-07-03T04:48:44.832Z,99.90
2018-07-03T04:51:13.942Z,99.90
2018-07-03T04:53:43.202Z,99.90
2018-07-03T04:56:12.267Z,99.90
2018-07-03T04:58:41.387Z,99.90
2018-07-03T05:01:10.403Z,99.90
2018-07-03T05:03:40.933Z,99.90
2018-07-03T05:06:09.972Z,99.90
2018-07-03T05:08:38.987Z,99.90
2018-07-03T05:11:08.110Z,99.90
2018-07-03T05:13:37.299Z,99.90
2018-07-03T05:16:06.545Z,99.90
2018-07-03T05:18:35.887Z,99.80
2018-07-03T05:21:06.537Z,99.20
2018-07-03T05:23:37.879Z,98.90
2018-07-03T05:26:06.997Z,98.50
2018-07-03T05:28:36.073Z,98.20
2018-07-03T05:31:05.090Z,98.40
2018-07-03T05:33:34.512Z,98.00
2018-07-03T05:36:03.723Z,97.70
2018-07-03T05:38:32.856Z,97.70
2018-07-03T05:41:01.986Z,97.80
2018-07-03T05:43:31.079Z,97.30
2018-07-03T05:46:00.052Z,97.10
2018-07-03T05:48:29.177Z,97.30
2018-07-03T05:50:58.298Z,97.60
2018-07-03T05:53:27.400Z,97.30
2018-07-03T05:55:56.443Z,96.90
2018-07-03T05:58:25.507Z,96.20
2018-07-03T06:00:54.975Z,95.60
2018-07-03T06:03:24.241Z,95.20
2018-07-03T06:05:53.250Z,94.40
2018-07-03T06:08:22.290Z,93.70
2018-07-03T06:10:51.499Z,94.00
2018-07-03T06:13:20.600Z,94.50
2018-07-03T06:15:49.663Z,93.40
2018-07-03T06:18:18.885Z,93.20
2018-07-03T06:20:47.694Z,92.80
2018-07-03T06:23:16.759Z,93.70
2018-07-03T06:25:45.789Z,93.30
2018-07-03T06:28:14.884Z,92.50
2018-07-03T06:30:43.894Z,91.40
2018-07-03T06:33:13.023Z,91.00
2018-07-03T06:35:42.235Z,90.40
2018-07-03T06:38:11.257Z,90.60
2018-07-03T06:40:40.270Z,89.00
2018-07-03T06:43:09.270Z,89.30
2018-07-03T06:45:38.511Z,89.30
2018-07-03T06:48:07.494Z,88.60
2018-07-03T06:50:36.570Z,88.00
2018-07-03T06:53:05.580Z,85.50
2018-07-03T06:55:34.625Z,82.50
2018-07-03T06:58:03.751Z,78.80
2018-07-03T07:00:32.794Z,78.50
2018-07-03T07:03:01.875Z,77.40
2018-07-03T07:05:30.906Z,73.90
2018-07-03T07:08:00.028Z,74.10
2018-07-03T07:10:29.074Z,71.70
2018-07-03T07:12:58.163Z,69.20
2018-07-03T07:15:27.186Z,67.30
2018-07-03T07:17:56.327Z,62.90
2018-07-03T07:20:25.343Z,59.80
2018-07-03T07:22:54.309Z,57.70
2018-07-03T07:25:23.367Z,57.10
2018-07-03T07:27:52.498Z,55.00
2018-07-03T07:30:21.558Z,53.80
2018-07-03T07:32:50.554Z,53.20
2018-07-03T07:35:19.662Z,52.00
2018-07-03T07:37:48.638Z,51.00
2018-07-03T07:40:17.998Z,50.10
2018-07-03T07:42:47.018Z,49.30
2018-07-03T07:45:15.990Z,49.30
2018-07-03T07:47:45.063Z,47.90
2018-07-03T07:50:14.086Z,47.90
2018-07-03T07:52:43.287Z,47.10
2018-07-03T07:55:12.411Z,48.00
2018-07-03T07:57:41.679Z,48.00
2018-07-03T08:00:10.905Z,46.30
2018-07-03T08:02:40.234Z,45.20
2018-07-03T08:05:16.178Z,46.80
2018-07-03T08:07:48.768Z,44.90
2018-07-03T08:10:18.131Z,44.30
2018-07-03T08:12:47.288Z,43.80
2018-07-03T08:15:16.336Z,43.10
2018-07-03T08:17:45.454Z,43.00
2018-07-03T08:20:14.590Z,42.60
2018-07-03T08:22:43.706Z,42.80
2018-07-03T08:25:12.727Z,42.40
2018-07-03T08:27:50.256Z,41.60
2018-07-03T08:30:20.557Z,42.70
2018-07-03T08:35:18.482Z,42.00
2018-07-03T08:37:47.491Z,41.90
2018-07-03T08:40:16.579Z,41.30
2018-07-03T08:42:45.611Z,41.00
2018-07-03T08:45:14.662Z,39.20
2018-07-03T08:47:43.702Z,38.40
2018-07-03T08:50:12.740Z,39.30
2018-07-03T08:52:41.743Z,39.50
2018-07-03T08:55:10.858Z,38.90
2018-07-03T08:57:39.867Z,39.20
2018-07-03T09:00:09.407Z,38.60
2018-07-03T09:02:38.463Z,38.60
2018-07-03T09:05:07.487Z,38.70
2018-07-03T09:07:36.591Z,38.50
2018-07-03T09:10:05.691Z,38.00
2018-07-03T09:12:34.824Z,38.00
2018-07-03T09:15:04.332Z,38.60
2018-07-03T09:17:33.382Z,37.50
2018-07-03T09:20:02.435Z,38.90
2018-07-03T09:22:32.059Z,39.80
2018-07-03T09:25:01.347Z,39.40
2018-07-03T09:27:30.407Z,39.20
2018-07-03T09:30:04.650Z,39.30
2018-07-03T09:32:34.271Z,39.70
2018-07-03T09:35:03.457Z,40.20
2018-07-03T09:37:32.520Z,40.30
2018-07-03T09:40:01.529Z,41.30
2018-07-03T09:42:33.700Z,40.60
2018-07-03T09:45:02.800Z,41.40
2018-07-03T09:47:31.917Z,41.80
2018-07-03T09:50:00.908Z,42.10
2018-07-03T09:52:30.054Z,42.00
2018-07-03T09:54:59.262Z,42.80
2018-07-03T09:57:28.243Z,43.00
2018-07-03T09:59:58.589Z,43.30
2018-07-03T10:02:28.080Z,43.20
2018-07-03T10:04:57.227Z,43.00
2018-07-03T10:07:26.430Z,43.60
2018-07-03T10:09:56.395Z,43.60
2018-07-03T10:12:25.417Z,42.70
2018-07-03T10:14:57.388Z,41.80
2018-07-03T10:17:26.526Z,42.80
2018-07-03T10:19:55.588Z,41.50
2018-07-03T10:22:24.586Z,41.20
2018-07-03T10:24:53.755Z,42.10
2018-07-03T10:27:24.967Z,42.10
2018-07-03T10:29:54.232Z,42.30
2018-07-03T10:32:23.266Z,42.30
2018-07-03T10:34:52.263Z,42.90
2018-07-03T10:37:21.240Z,43.90
2018-07-03T10:39:50.198Z,42.90
2018-07-03T10:42:19.666Z,43.10
2018-07-03T10:44:48.793Z,42.50
2018-07-03T10:47:17.927Z,43.80
2018-07-03T10:49:47.029Z,44.20
2018-07-03T10:52:16.193Z,44.50
2018-07-03T10:54:45.410Z,43.20
2018-07-03T10:57:14.651Z,43.40
2018-07-03T10:59:43.783Z,42.90
2018-07-03T11:02:12.935Z,43.40
2018-07-03T11:04:42.005Z,43.60
2018-07-03T11:07:11.235Z,43.50
2018-07-03T11:09:40.467Z,43.20
2018-07-03T11:12:09.458Z,43.00
2018-07-03T11:14:38.679Z,43.30
2018-07-03T11:17:07.755Z,44.20
2018-07-03T11:19:37.304Z,43.40
2018-07-03T11:22:07.059Z,44.10
2018-07-03T11:24:36.189Z,43.80
2018-07-03T11:27:05.389Z,42.70
2018-07-03T11:29:34.539Z,43.60
2018-07-03T11:32:03.695Z,42.90
2018-07-03T11:34:32.726Z,42.80
2018-07-03T11:37:01.921Z,43.40
2018-07-03T11:39:31.019Z,43.10
2018-07-03T11:42:00.403Z,43.90
2018-07-03T11:44:29.526Z,43.40
2018-07-03T11:46:58.670Z,42.30
2018-07-03T11:49:28.892Z,43.50
2018-07-03T11:51:58.075Z,44.30
2018-07-03T11:54:27.231Z,44.10
2018-07-03T11:56:56.253Z,45.10
2018-07-03T11:59:25.378Z,45.60
2018-07-03T12:01:54.432Z,43.60
2018-07-03T12:04:23.681Z,43.20
2018-07-03T12:06:52.760Z,44.00
2018-07-03T12:09:22.743Z,43.60
2018-07-03T12:11:51.959Z,44.00
2018-07-03T12:14:21.066Z,43.60
2018-07-03T12:16:50.199Z,44.20
2018-07-03T12:19:19.258Z,43.90
2018-07-03T12:21:48.295Z,45.20
2018-07-03T12:24:17.296Z,42.20
2018-07-03T12:29:15.185Z,43.10
2018-07-03T12:31:44.363Z,42.50
2018-07-03T12:34:13.420Z,43.10
2018-07-03T12:36:42.620Z,42.00
2018-07-03T12:39:12.158Z,41.80
2018-07-03T12:41:41.245Z,41.60
2018-07-03T12:44:10.346Z,41.00
2018-07-03T12:46:39.470Z,42.20
2018-07-03T12:49:08.455Z,41.60
2018-07-03T12:51:37.514Z,41.10
2018-07-03T12:54:06.677Z,41.70
2018-07-03T12:56:35.875Z,41.60
2018-07-03T12:59:05.003Z,42.00
2018-07-03T13:01:34.056Z,43.40
2018-07-03T13:04:03.118Z,43.30
2018-07-03T13:06:32.221Z,41.50
2018-07-03T13:09:01.311Z,41.60
2018-07-03T13:11:30.520Z,42.00
2018-07-03T13:13:59.859Z,40.60
2018-07-03T13:16:28.938Z,40.30
2018-07-03T13:18:58.107Z,40.80
2018-07-03T13:21:27.110Z,40.50
2018-07-03T13:23:56.182Z,41.40
2018-07-03T13:26:25.230Z,41.50
2018-07-03T13:28:54.227Z,38.40
2018-07-03T13:31:23.423Z,37.40
2018-07-03T13:33:52.454Z,37.80
2018-07-03T13:36:21.601Z,36.40
2018-07-03T13:38:50.662Z,36.80
2018-07-03T13:41:20.268Z,36.10
2018-07-03T13:43:49.395Z,36.20
2018-07-03T13:46:18.678Z,35.70
2018-07-03T13:48:47.682Z,34.70
2018-07-03T13:51:17.422Z,34.20
2018-07-03T13:53:48.174Z,33.80
2018-07-03T13:56:17.538Z,33.60
2018-07-03T13:58:46.511Z,32.50
2018-07-03T14:01:15.691Z,31.50
2018-07-03T14:03:44.994Z,32.10
2018-07-03T14:06:14.370Z,31.40
2018-07-03T14:08:43.403Z,31.70
2018-07-03T14:11:12.751Z,30.50
2018-07-03T14:13:41.903Z,31.20
2018-07-03T14:16:11.124Z,30.40
2018-07-03T14:18:40.254Z,30.60
2018-07-03T14:21:09.279Z,30.60
2018-07-03T14:23:38.578Z,30.10
2018-07-03T14:26:08.089Z,30.60
2018-07-03T14:28:37.150Z,30.20
2018-07-03T14:31:06.281Z,30.00
2018-07-03T14:33:35.355Z,29.90
2018-07-03T14:36:04.426Z,30.20
2018-07-03T14:38:33.442Z,30.20
2018-07-03T14:41:02.471Z,30.00
2018-07-03T14:43:31.521Z,30.00
2018-07-03T14:46:00.514Z,30.00
2018-07-03T14:48:29.490Z,28.90
2018-07-03T14:50:58.560Z,28.80
2018-07-03T14:53:27.823Z,29.80
2018-07-03T14:55:56.881Z,29.30
2018-07-03T14:58:27.051Z,29.30
2018-07-03T15:00:56.286Z,29.20
2018-07-03T15:03:25.387Z,28.70
2018-07-03T15:05:54.458Z,28.70
2018-07-03T15:08:23.558Z,28.90
2018-07-03T15:10:52.802Z,28.50
2018-07-03T15:13:21.843Z,28.20
2018-07-03T15:15:50.979Z,28.20
2018-07-03T15:18:23.984Z,28.90
2018-07-03T15:20:53.530Z,29.30
2018-07-03T15:23:23.934Z,29.00
2018-07-03T15:25:54.305Z,29.20
2018-07-03T15:28:23.438Z,28.80
2018-07-03T15:30:52.551Z,27.70
2018-07-03T15:33:21.638Z,28.10
2018-07-03T15:35:50.643Z,27.70
2018-07-03T15:38:19.653Z,28.30
2018-07-03T15:40:48.810Z,28.40
2018-07-03T15:43:17.944Z,29.20
2018-07-03T15:45:47.123Z,27.40
2018-07-03T15:48:16.114Z,29.20
2018-07-03T15:50:45.218Z,28.40
2018-07-03T15:53:14.281Z,28.70
2018-07-03T15:55:43.354Z,29.30
2018-07-03T15:58:12.698Z,28.60
2018-07-03T16:00:41.770Z,28.40
2018-07-03T16:03:24.724Z,29.60
2018-07-03T16:08:16.426Z,29.20
2018-07-03T16:10:45.674Z,28.30
2018-07-03T16:13:14.753Z,28.30
2018-07-03T16:15:44.372Z,27.80
2018-07-03T16:18:13.455Z,28.40
2018-07-03T16:20:42.849Z,28.60
2018-07-03T16:23:11.964Z,30.70
2018-07-03T16:25:40.959Z,31.10
2018-07-03T16:28:10.017Z,30.60
2018-07-03T16:30:38.998Z,30.00
2018-07-03T16:33:08.256Z,30.60
2018-07-03T16:35:37.612Z,31.40
2018-07-03T16:38:06.938Z,31.20
2018-07-03T16:40:36.099Z,34.10
2018-07-03T16:43:05.333Z,31.40
2018-07-03T16:45:34.628Z,33.00
2018-07-03T16:48:03.647Z,32.50
2018-07-03T16:50:32.619Z,32.30
2018-07-03T16:53:01.774Z,33.70
2018-07-03T16:55:30.986Z,33.00
2018-07-03T16:58:00.035Z,33.80
2018-07-03T17:00:29.520Z,32.70
2018-07-03T17:02:59.192Z,33.60
2018-07-03T17:05:28.347Z,32.60
2018-07-03T17:08:14.940Z,33.50
2018-07-03T17:10:45.230Z,35.00
2018-07-03T17:13:14.378Z,36.00
2018-07-03T17:15:43.409Z,35.30
2018-07-03T17:18:12.579Z,34.10
2018-07-03T17:20:41.680Z,34.00
2018-07-03T17:23:10.950Z,33.60
2018-07-03T17:25:40.114Z,34.40
2018-07-03T17:28:09.568Z,34.50
2018-07-03T17:30:38.740Z,35.50
2018-07-03T17:33:08.440Z,33.70
2018-07-03T17:35:37.637Z,35.30
2018-07-03T17:38:06.759Z,35.00
2018-07-03T17:40:47.364Z,34.90
2018-07-03T17:44:15.701Z,35.30
2018-07-03T17:46:45.446Z,34.60
2018-07-03T17:49:14.558Z,35.50
2018-07-03T17:51:43.715Z,36.60
2018-07-03T17:54:12.851Z,36.50
2018-07-03T17:56:44.897Z,36.40
2018-07-03T17:59:15.825Z,38.60
2018-07-03T18:01:45.097Z,34.90
2018-07-03T18:04:14.575Z,34.90
2018-07-03T18:06:43.630Z,34.40
2018-07-03T18:11:42.727Z,35.80
2018-07-03T18:14:11.731Z,36.70
2018-07-03T18:16:44.778Z,36.10
2018-07-03T18:19:21.539Z,39.10
2018-07-03T18:21:51.532Z,38.90
2018-07-03T18:24:21.583Z,37.90
2018-07-03T18:26:51.917Z,38.40
2018-07-03T18:29:21.099Z,39.60
2018-07-03T18:31:50.328Z,38.60
2018-07-03T18:34:19.402Z,37.50
2018-07-03T18:36:49.083Z,37.50
2018-07-03T18:39:19.430Z,37.40
2018-07-03T18:41:49.263Z,37.70
2018-07-03T18:44:18.324Z,39.00
2018-07-03T18:46:48.182Z,40.50
2018-07-03T18:49:17.451Z,40.90
2018-07-03T18:51:46.655Z,40.50
2018-07-03T18:54:15.880Z,42.30
2018-07-03T18:56:44.956Z,42.10
2018-07-03T18:59:14.039Z,43.10
2018-07-03T19:01:45.200Z,44.20
2018-07-03T19:04:14.247Z,43.80
2018-07-03T19:06:43.517Z,45.40
2018-07-03T19:09:12.860Z,43.50
2018-07-03T19:11:41.935Z,44.50
2018-07-03T19:14:18.377Z,44.90
2018-07-03T19:16:47.676Z,44.90
2018-07-03T19:19:16.787Z,45.50
2018-07-03T19:21:45.990Z,45.80
2018-07-03T19:24:15.021Z,46.40
2018-07-03T19:26:45.607Z,47.80
2018-07-03T19:29:14.599Z,49.10
2018-07-03T19:31:43.859Z,48.20
2018-07-03T19:34:13.055Z,48.90
2018-07-03T19:36:42.195Z,49.10
2018-07-03T19:39:13.007Z,49.30
2018-07-03T19:41:42.883Z,48.50
2018-07-03T19:44:12.167Z,49.00
2018-07-03T19:46:43.395Z,49.80
2018-07-03T19:49:12.701Z,49.30
2018-07-03T19:51:41.740Z,49.60
2018-07-03T19:54:12.060Z,49.40
2018-07-03T19:56:41.184Z,50.00
2018-07-03T19:59:10.242Z,50.00
2018-07-03T20:01:39.476Z,50.10
2018-07-03T20:04:08.593Z,50.30
2018-07-03T20:09:56.355Z,51.20
2018-07-03T20:12:25.738Z,51.50
2018-07-03T20:14:54.782Z,51.50
2018-07-03T20:17:24.035Z,50.60
2018-07-03T20:19:53.162Z,52.20
2018-07-03T20:22:25.123Z,51.80
2018-07-03T20:24:54.252Z,51.10
2018-07-03T20:27:23.503Z,50.90
2018-07-03T20:29:52.790Z,50.30
2018-07-03T20:32:22.056Z,50.60
2018-07-03T20:34:51.392Z,51.00
2018-07-03T20:37:20.462Z,51.10
2018-07-03T20:39:49.595Z,51.00
2018-07-03T20:42:18.662Z,51.10
2018-07-03T20:44:47.754Z,51.10
2018-07-03T20:47:18.119Z,51.60
2018-07-03T20:49:47.331Z,52.80
2018-07-03T20:52:16.407Z,52.30
2018-07-03T20:54:45.539Z,52.40
2018-07-03T20:57:14.790Z,52.50
2018-07-03T20:59:43.984Z,53.60
2018-07-03T21:02:13.142Z,53.70
2018-07-03T21:04:42.407Z,53.80
2018-07-03T21:07:11.511Z,53.50
2018-07-03T21:09:41.530Z,54.50
2018-07-03T21:14:44.788Z,56.50
2018-07-03T21:17:13.954Z,57.30
2018-07-03T21:19:44.658Z,58.10
2018-07-03T21:22:14.203Z,58.10
2018-07-03T21:24:43.237Z,58.70
2018-07-03T21:27:16.066Z,59.30
2018-07-03T21:29:45.281Z,59.70
2018-07-03T21:34:49.747Z,59.80
2018-07-03T21:37:18.798Z,60.40
2018-07-03T21:39:48.051Z,60.60
2018-07-03T21:42:17.178Z,60.70
2018-07-03T21:44:46.342Z,61.30
2018-07-03T21:47:15.437Z,61.20
2018-07-03T21:49:44.510Z,61.50
2018-07-03T21:52:13.550Z,62.20
2018-07-03T21:54:42.640Z,62.10
2018-07-03T21:57:11.826Z,61.70
2018-07-03T21:59:40.969Z,62.00
2018-07-03T22:02:10.058Z,62.40
2018-07-03T22:04:39.959Z,63.10
2018-07-03T22:07:08.964Z,62.80
2018-07-03T22:09:37.986Z,62.00
2018-07-03T22:12:07.103Z,63.00
2018-07-03T22:14:37.295Z,62.30
2018-07-03T22:17:06.800Z,61.20
2018-07-03T22:19:35.960Z,61.20
2018-07-03T22:22:05.087Z,62.20
2018-07-03T22:24:34.851Z,62.70
2018-07-03T22:29:33.023Z,62.90
2018-07-03T22:32:02.219Z,62.70
2018-07-03T22:34:31.214Z,63.00
2018-07-03T22:37:00.244Z,63.50
2018-07-03T22:39:29.414Z,64.20
2018-07-03T22:44:26.988Z,64.20
2018-07-03T22:46:56.047Z,64.80
2018-07-03T22:49:25.060Z,65.60
2018-07-03T22:51:54.240Z,66.30
2018-07-03T22:54:23.231Z,66.40
2018-07-03T22:56:52.242Z,65.10
2018-07-03T22:59:21.234Z,65.50
2018-07-03T23:01:50.240Z,65.90
2018-07-03T23:04:19.335Z,66.70
2018-07-03T23:06:48.346Z,67.20
2018-07-03T23:09:17.423Z,67.90
2018-07-03T23:11:46.442Z,68.40
2018-07-03T23:14:16.585Z,68.50
2018-07-03T23:16:45.590Z,68.80
2018-07-03T23:19:14.636Z,69.60
2018-07-03T23:21:43.648Z,70.50
2018-07-03T23:24:12.703Z,70.50
2018-07-03T23:26:41.858Z,71.10
2018-07-03T23:29:11.058Z,71.80
2018-07-03T23:31:40.162Z,72.00
2018-07-03T23:34:09.520Z,72.80
2018-07-03T23:36:38.526Z,72.80
2018-07-03T23:39:08.697Z,72.20
2018-07-03T23:41:37.858Z,72.60
2018-07-03T23:44:06.963Z,73.00
2018-07-03T23:46:47.183Z,73.30
2018-07-03T23:49:27.492Z,73.50
2018-07-03T23:52:07.903Z,73.90
2018-07-03T23:54:48.244Z,74.20
2018-07-03T23:57:28.467Z,75.00
